sensor_id;sensor_type;location;lat;lon;timestamp;temperature;humidity
52187;DHT22;38161;53.020;6.598;2023-01-15T00:00:20;5.80;99.90
52187;DHT22;38161;53.020;6.598;2023-01-15T00:02:45;5.80;99.90
52187;DHT22;38161;53.020;6.598;2023-01-15T00:05:11;5.80;99.90
52187;DHT22;38161;53.020;6.598;2023-01-15T00:07:37;5.80;99.90
52187;DHT22;38161;53.020;6.598;2023-01-15T00:10:03;5.80;99.90
52187;DHT22;38161;53.020;6.598;2023-01-15T00:12:29;5.80;99.90
52187;DHT22;38161;53.020;6.598;2023-01-15T00:14:55;5.80;99.90
52187;DHT22;38161;53.020;6.598;2023-01-15T00:17:22;5.80;99.90
52187;DHT22;38161;53.020;6.598;2023-01-15T00:19:48;5.80;99.90
52187;DHT22;38161;53.020;6.598;2023-01-15T00:22:14;5.80;99.90
52187;DHT22;38161;53.020;6.598;2023-01-15T00:24:39;5.80;99.90
52187;DHT22;38161;53.020;6.598;2023-01-15T00:27:24;5.80;99.90
52187;DHT22;38161;53.020;6.598;2023-01-15T00:30:09;5.80;99.90
52187;DHT22;38161;53.020;6.598;2023-01-15T00:32:35;5.80;99.90
52187;DHT22;38161;53.020;6.598;2023-01-15T00:35:01;5.80;99.90
52187;DHT22;38161;53.020;6.598;2023-01-15T00:37:27;5.80;99.90
52187;DHT22;38161;53.020;6.598;2023-01-15T00:39:52;5.80;99.90
52187;DHT22;38161;53.020;6.598;2023-01-15T00:42:18;5.80;99.90
52187;DHT22;38161;53.020;6.598;2023-01-15T00:44:44;5.80;99.90
52187;DHT22;38161;53.020;6.598;2023-01-15T00:47:11;5.80;99.90
52187;DHT22;38161;53.020;6.598;2023-01-15T00:49:43;5.80;99.90
52187;DHT22;38161;53.020;6.598;2023-01-15T00:52:09;5.80;99.90
52187;DHT22;38161;53.020;6.598;2023-01-15T00:54:35;5.80;99.90
52187;DHT22;38161;53.020;6.598;2023-01-15T00:57:01;5.80;99.90
52187;DHT22;38161;53.020;6.598;2023-01-15T00:59:27;5.80;99.90
52187;DHT22;38161;53.020;6.598;2023-01-15T01:01:52;5.80;99.90
52187;DHT22;38161;53.020;6.598;2023-01-15T01:04:18;5.80;99.90
52187;DHT22;38161;53.020;6.598;2023-01-15T01:06:44;5.80;99.90
52187;DHT22;38161;53.020;6.598;2023-01-15T01:09:12;5.80;99.90
52187;DHT22;38161;53.020;6.598;2023-01-15T01:11:39;5.80;99.90
52187;DHT22;38161;53.020;6.598;2023-01-15T01:14:04;5.90;99.90
52187;DHT22;38161;53.020;6.598;2023-01-15T01:16:35;5.90;99.90
52187;DHT22;38161;53.020;6.598;2023-01-15T01:19:14;5.90;99.90
52187;DHT22;38161;53.020;6.598;2023-01-15T01:21:42;5.80;99.90
52187;DHT22;38161;53.020;6.598;2023-01-15T01:24:11;5.90;99.90
52187;DHT22;38161;53.020;6.598;2023-01-15T01:26:37;5.90;99.90
52187;DHT22;38161;53.020;6.598;2023-01-15T01:29:03;5.90;99.90
52187;DHT22;38161;53.020;6.598;2023-01-15T01:31:29;5.90;99.90
52187;DHT22;38161;53.020;6.598;2023-01-15T01:33:57;5.80;99.90
52187;DHT22;38161;53.020;6.598;2023-01-15T01:36:31;5.90;99.90
52187;DHT22;38161;53.020;6.598;2023-01-15T01:38:58;5.80;99.90
52187;DHT22;38161;53.020;6.598;2023-01-15T01:41:25;5.80;99.90
52187;DHT22;38161;53.020;6.598;2023-01-15T01:44:00;5.80;99.90
52187;DHT22;38161;53.020;6.598;2023-01-15T01:46:28;5.90;99.90
52187;DHT22;38161;53.020;6.598;2023-01-15T01:48:59;5.80;99.90
52187;DHT22;38161;53.020;6.598;2023-01-15T01:51:36;5.90;99.90
52187;DHT22;38161;53.020;6.598;2023-01-15T01:54:03;5.80;99.90
52187;DHT22;38161;53.020;6.598;2023-01-15T01:56:31;5.90;99.90
52187;DHT22;38161;53.020;6.598;2023-01-15T01:58:58;5.90;99.90
52187;DHT22;38161;53.020;6.598;2023-01-15T02:01:24;5.90;99.90
52187;DHT22;38161;53.020;6.598;2023-01-15T02:03:52;5.90;99.90
52187;DHT22;38161;53.020;6.598;2023-01-15T02:06:18;5.80;99.90
52187;DHT22;38161;53.020;6.598;2023-01-15T02:08:44;5.80;99.90
52187;DHT22;38161;53.020;6.598;2023-01-15T02:11:16;5.80;99.90
52187;DHT22;38161;53.020;6.598;2023-01-15T02:16:25;5.80;99.90
52187;DHT22;38161;53.020;6.598;2023-01-15T02:20:11;5.80;99.90
52187;DHT22;38161;53.020;6.598;2023-01-15T02:24:57;5.80;99.90
52187;DHT22;38161;53.020;6.598;2023-01-15T02:27:25;5.80;99.90
52187;DHT22;38161;53.020;6.598;2023-01-15T02:32:40;5.80;99.90
52187;DHT22;38161;53.020;6.598;2023-01-15T02:35:24;5.80;99.90
52187;DHT22;38161;53.020;6.598;2023-01-15T02:37:56;5.80;99.90
52187;DHT22;38161;53.020;6.598;2023-01-15T02:40:25;5.80;99.90
52187;DHT22;38161;53.020;6.598;2023-01-15T02:42:52;5.80;99.90
52187;DHT22;38161;53.020;6.598;2023-01-15T02:45:26;5.80;99.90
52187;DHT22;38161;53.020;6.598;2023-01-15T02:47:55;5.80;99.90
52187;DHT22;38161;53.020;6.598;2023-01-15T02:50:26;5.80;99.90
52187;DHT22;38161;53.020;6.598;2023-01-15T02:52:57;5.80;99.90
52187;DHT22;38161;53.020;6.598;2023-01-15T02:55:34;5.80;99.90
52187;DHT22;38161;53.020;6.598;2023-01-15T02:58:04;5.80;99.90
52187;DHT22;38161;53.020;6.598;2023-01-15T03:00:35;5.80;99.90
52187;DHT22;38161;53.020;6.598;2023-01-15T03:03:12;5.90;99.90
52187;DHT22;38161;53.020;6.598;2023-01-15T03:05:44;5.80;99.90
52187;DHT22;38161;53.020;6.598;2023-01-15T03:08:13;5.80;99.90
52187;DHT22;38161;53.020;6.598;2023-01-15T03:10:48;5.80;99.90
52187;DHT22;38161;53.020;6.598;2023-01-15T03:13:22;5.80;99.90
52187;DHT22;38161;53.020;6.598;2023-01-15T03:18:54;5.80;99.90
52187;DHT22;38161;53.020;6.598;2023-01-15T03:21:27;5.80;99.90
52187;DHT22;38161;53.020;6.598;2023-01-15T03:23:55;5.80;99.90
52187;DHT22;38161;53.020;6.598;2023-01-15T03:26:27;5.80;99.90
52187;DHT22;38161;53.020;6.598;2023-01-15T03:28:53;5.80;99.90
52187;DHT22;38161;53.020;6.598;2023-01-15T03:31:20;5.80;99.90
52187;DHT22;38161;53.020;6.598;2023-01-15T03:33:46;5.70;99.90
52187;DHT22;38161;53.020;6.598;2023-01-15T03:36:12;5.80;99.90
52187;DHT22;38161;53.020;6.598;2023-01-15T03:38:39;5.70;99.90
52187;DHT22;38161;53.020;6.598;2023-01-15T03:46:31;5.70;99.90
52187;DHT22;38161;53.020;6.598;2023-01-15T03:49:37;5.80;99.90
52187;DHT22;38161;53.020;6.598;2023-01-15T03:52:29;5.80;99.90
52187;DHT22;38161;53.020;6.598;2023-01-15T04:00:27;5.80;99.90
52187;DHT22;38161;53.020;6.598;2023-01-15T04:02:56;5.70;99.90
52187;DHT22;38161;53.020;6.598;2023-01-15T04:05:24;5.70;99.90
52187;DHT22;38161;53.020;6.598;2023-01-15T04:07:51;5.70;99.90
52187;DHT22;38161;53.020;6.598;2023-01-15T04:10:18;5.70;99.90
52187;DHT22;38161;53.020;6.598;2023-01-15T04:12:44;5.70;99.90
52187;DHT22;38161;53.020;6.598;2023-01-15T04:15:11;5.70;99.90
52187;DHT22;38161;53.020;6.598;2023-01-15T04:17:37;5.70;99.90
52187;DHT22;38161;53.020;6.598;2023-01-15T04:20:03;5.70;99.90
52187;DHT22;38161;53.020;6.598;2023-01-15T04:22:29;5.70;99.90
52187;DHT22;38161;53.020;6.598;2023-01-15T04:24:55;5.60;99.90
52187;DHT22;38161;53.020;6.598;2023-01-15T04:27:21;5.60;99.90
52187;DHT22;38161;53.020;6.598;2023-01-15T04:29:47;5.60;99.90
52187;DHT22;38161;53.020;6.598;2023-01-15T04:32:13;5.60;99.90
52187;DHT22;38161;53.020;6.598;2023-01-15T04:34:39;5.60;99.90
52187;DHT22;38161;53.020;6.598;2023-01-15T04:37:05;5.60;99.90
52187;DHT22;38161;53.020;6.598;2023-01-15T04:39:31;5.60;99.90
52187;DHT22;38161;53.020;6.598;2023-01-15T04:41:57;5.60;99.90
52187;DHT22;38161;53.020;6.598;2023-01-15T04:44:41;5.60;99.90
52187;DHT22;38161;53.020;6.598;2023-01-15T04:47:07;5.60;99.90
52187;DHT22;38161;53.020;6.598;2023-01-15T04:49:33;5.60;99.90
52187;DHT22;38161;53.020;6.598;2023-01-15T04:51:59;5.60;99.90
52187;DHT22;38161;53.020;6.598;2023-01-15T04:54:25;5.60;99.90
52187;DHT22;38161;53.020;6.598;2023-01-15T04:56:52;5.60;99.90
52187;DHT22;38161;53.020;6.598;2023-01-15T04:59:24;5.60;99.90
52187;DHT22;38161;53.020;6.598;2023-01-15T05:01:51;5.50;99.90
52187;DHT22;38161;53.020;6.598;2023-01-15T05:04:17;5.50;99.90
52187;DHT22;38161;53.020;6.598;2023-01-15T05:06:43;5.50;99.90
52187;DHT22;38161;53.020;6.598;2023-01-15T05:09:09;5.50;99.90
52187;DHT22;38161;53.020;6.598;2023-01-15T05:11:36;5.50;99.90
52187;DHT22;38161;53.020;6.598;2023-01-15T05:14:03;5.50;99.90
52187;DHT22;38161;53.020;6.598;2023-01-15T05:16:29;5.50;99.90
52187;DHT22;38161;53.020;6.598;2023-01-15T05:19:00;5.40;99.90
52187;DHT22;38161;53.020;6.598;2023-01-15T05:21:29;5.40;99.90
52187;DHT22;38161;53.020;6.598;2023-01-15T05:24:00;5.40;99.90
52187;DHT22;38161;53.020;6.598;2023-01-15T05:26:27;5.40;99.90
52187;DHT22;38161;53.020;6.598;2023-01-15T05:28:55;5.40;99.90
52187;DHT22;38161;53.020;6.598;2023-01-15T05:31:23;5.40;99.90
52187;DHT22;38161;53.020;6.598;2023-01-15T05:33:50;5.40;99.90
52187;DHT22;38161;53.020;6.598;2023-01-15T05:36:19;5.30;99.90
52187;DHT22;38161;53.020;6.598;2023-01-15T05:38:45;5.30;99.90
52187;DHT22;38161;53.020;6.598;2023-01-15T05:41:14;5.40;99.90
52187;DHT22;38161;53.020;6.598;2023-01-15T05:44:05;5.30;99.90
52187;DHT22;38161;53.020;6.598;2023-01-15T05:46:34;5.30;99.90
52187;DHT22;38161;53.020;6.598;2023-01-15T05:49:01;5.20;99.90
52187;DHT22;38161;53.020;6.598;2023-01-15T05:51:28;5.20;99.90
52187;DHT22;38161;53.020;6.598;2023-01-15T05:53:55;5.20;99.90
52187;DHT22;38161;53.020;6.598;2023-01-15T05:56:21;5.30;99.90
52187;DHT22;38161;53.020;6.598;2023-01-15T05:58:47;5.20;99.90
52187;DHT22;38161;53.020;6.598;2023-01-15T06:01:12;5.20;99.90
52187;DHT22;38161;53.020;6.598;2023-01-15T06:03:38;5.30;99.90
52187;DHT22;38161;53.020;6.598;2023-01-15T06:06:06;5.20;99.90
52187;DHT22;38161;53.020;6.598;2023-01-15T06:08:32;5.20;99.90
52187;DHT22;38161;53.020;6.598;2023-01-15T06:10:57;5.20;99.90
52187;DHT22;38161;53.020;6.598;2023-01-15T06:13:23;5.30;99.90
52187;DHT22;38161;53.020;6.598;2023-01-15T06:15:49;5.20;99.90
52187;DHT22;38161;53.020;6.598;2023-01-15T06:18:15;5.20;99.90
52187;DHT22;38161;53.020;6.598;2023-01-15T06:20:41;5.20;99.90
52187;DHT22;38161;53.020;6.598;2023-01-15T06:23:07;5.20;99.90
52187;DHT22;38161;53.020;6.598;2023-01-15T06:25:34;5.10;99.90
52187;DHT22;38161;53.020;6.598;2023-01-15T06:28:03;5.10;99.90
52187;DHT22;38161;53.020;6.598;2023-01-15T06:30:28;5.10;99.90
52187;DHT22;38161;53.020;6.598;2023-01-15T06:32:54;5.00;99.90
52187;DHT22;38161;53.020;6.598;2023-01-15T06:35:19;5.10;99.90
52187;DHT22;38161;53.020;6.598;2023-01-15T06:37:47;5.00;99.90
52187;DHT22;38161;53.020;6.598;2023-01-15T06:40:13;5.00;99.90
52187;DHT22;38161;53.020;6.598;2023-01-15T06:42:39;5.00;99.90
52187;DHT22;38161;53.020;6.598;2023-01-15T06:45:23;5.00;99.90
52187;DHT22;38161;53.020;6.598;2023-01-15T06:48:07;5.00;99.90
52187;DHT22;38161;53.020;6.598;2023-01-15T06:50:33;4.90;99.90
52187;DHT22;38161;53.020;6.598;2023-01-15T06:52:58;4.90;99.90
52187;DHT22;38161;53.020;6.598;2023-01-15T06:55:24;4.90;99.90
52187;DHT22;38161;53.020;6.598;2023-01-15T06:57:50;4.90;99.90
52187;DHT22;38161;53.020;6.598;2023-01-15T07:00:16;4.80;99.90
52187;DHT22;38161;53.020;6.598;2023-01-15T07:02:41;4.90;99.90
52187;DHT22;38161;53.020;6.598;2023-01-15T07:05:08;4.90;99.90
52187;DHT22;38161;53.020;6.598;2023-01-15T07:07:33;4.90;99.90
52187;DHT22;38161;53.020;6.598;2023-01-15T07:09:59;4.80;99.90
52187;DHT22;38161;53.020;6.598;2023-01-15T07:12:25;4.80;99.90
52187;DHT22;38161;53.020;6.598;2023-01-15T07:14:51;4.80;99.90
52187;DHT22;38161;53.020;6.598;2023-01-15T07:17:17;4.80;99.90
52187;DHT22;38161;53.020;6.598;2023-01-15T07:19:43;4.70;99.90
52187;DHT22;38161;53.020;6.598;2023-01-15T07:22:09;4.70;99.90
52187;DHT22;38161;53.020;6.598;2023-01-15T07:24:35;4.80;99.90
52187;DHT22;38161;53.020;6.598;2023-01-15T07:27:01;4.70;99.90
52187;DHT22;38161;53.020;6.598;2023-01-15T07:29:27;4.70;99.90
52187;DHT22;38161;53.020;6.598;2023-01-15T07:31:53;4.70;99.90
52187;DHT22;38161;53.020;6.598;2023-01-15T07:34:19;4.70;99.90
52187;DHT22;38161;53.020;6.598;2023-01-15T07:36:44;4.70;99.90
52187;DHT22;38161;53.020;6.598;2023-01-15T07:39:11;4.70;99.90
52187;DHT22;38161;53.020;6.598;2023-01-15T07:41:36;4.70;99.90
52187;DHT22;38161;53.020;6.598;2023-01-15T07:44:21;4.70;99.90
52187;DHT22;38161;53.020;6.598;2023-01-15T07:47:24;4.70;99.90
52187;DHT22;38161;53.020;6.598;2023-01-15T07:50:15;4.70;99.90
52187;DHT22;38161;53.020;6.598;2023-01-15T07:52:42;4.70;99.90
52187;DHT22;38161;53.020;6.598;2023-01-15T07:55:08;4.70;99.90
52187;DHT22;38161;53.020;6.598;2023-01-15T07:57:35;4.70;99.90
52187;DHT22;38161;53.020;6.598;2023-01-15T08:00:02;4.70;99.90
52187;DHT22;38161;53.020;6.598;2023-01-15T08:02:28;4.70;99.90
52187;DHT22;38161;53.020;6.598;2023-01-15T08:04:53;4.70;99.90
52187;DHT22;38161;53.020;6.598;2023-01-15T08:07:19;4.70;99.90
52187;DHT22;38161;53.020;6.598;2023-01-15T08:09:45;4.70;99.90
52187;DHT22;38161;53.020;6.598;2023-01-15T08:12:11;4.70;99.90
52187;DHT22;38161;53.020;6.598;2023-01-15T08:14:55;4.70;99.90
52187;DHT22;38161;53.020;6.598;2023-01-15T08:17:43;4.70;99.90
52187;DHT22;38161;53.020;6.598;2023-01-15T08:20:17;4.70;99.90
52187;DHT22;38161;53.020;6.598;2023-01-15T08:22:45;4.70;99.90
52187;DHT22;38161;53.020;6.598;2023-01-15T08:25:12;4.70;99.90
52187;DHT22;38161;53.020;6.598;2023-01-15T08:27:38;4.80;99.90
52187;DHT22;38161;53.020;6.598;2023-01-15T08:30:07;4.80;99.90
52187;DHT22;38161;53.020;6.598;2023-01-15T08:32:33;4.80;99.90
52187;DHT22;38161;53.020;6.598;2023-01-15T08:34:59;4.90;99.90
52187;DHT22;38161;53.020;6.598;2023-01-15T08:37:26;5.00;99.90
52187;DHT22;38161;53.020;6.598;2023-01-15T08:39:52;5.10;99.90
52187;DHT22;38161;53.020;6.598;2023-01-15T08:42:21;5.10;99.90
52187;DHT22;38161;53.020;6.598;2023-01-15T08:44:47;5.20;99.90
52187;DHT22;38161;53.020;6.598;2023-01-15T08:47:14;5.20;99.90
52187;DHT22;38161;53.020;6.598;2023-01-15T08:49:40;5.30;99.90
52187;DHT22;38161;53.020;6.598;2023-01-15T08:52:06;5.30;99.90
52187;DHT22;38161;53.020;6.598;2023-01-15T08:54:31;5.20;99.90
52187;DHT22;38161;53.020;6.598;2023-01-15T08:56:58;5.20;99.90
52187;DHT22;38161;53.020;6.598;2023-01-15T08:59:24;5.10;99.90
52187;DHT22;38161;53.020;6.598;2023-01-15T09:01:50;5.00;99.90
52187;DHT22;38161;53.020;6.598;2023-01-15T09:04:18;4.90;99.90
52187;DHT22;38161;53.020;6.598;2023-01-15T09:06:44;4.80;99.90
52187;DHT22;38161;53.020;6.598;2023-01-15T09:09:10;4.70;99.90
52187;DHT22;38161;53.020;6.598;2023-01-15T09:11:36;4.70;99.90
52187;DHT22;38161;53.020;6.598;2023-01-15T09:14:08;4.70;99.90
52187;DHT22;38161;53.020;6.598;2023-01-15T09:16:35;4.70;99.90
52187;DHT22;38161;53.020;6.598;2023-01-15T09:19:02;4.70;99.90
52187;DHT22;38161;53.020;6.598;2023-01-15T09:21:27;4.60;99.90
52187;DHT22;38161;53.020;6.598;2023-01-15T09:23:53;4.60;99.90
52187;DHT22;38161;53.020;6.598;2023-01-15T09:26:27;4.40;99.90
52187;DHT22;38161;53.020;6.598;2023-01-15T09:28:53;4.20;99.90
52187;DHT22;38161;53.020;6.598;2023-01-15T09:31:20;4.20;99.90
52187;DHT22;38161;53.020;6.598;2023-01-15T09:33:45;4.10;99.90
52187;DHT22;38161;53.020;6.598;2023-01-15T09:36:28;4.10;99.90
52187;DHT22;38161;53.020;6.598;2023-01-15T09:38:55;4.10;99.90
52187;DHT22;38161;53.020;6.598;2023-01-15T09:41:22;4.10;99.90
52187;DHT22;38161;53.020;6.598;2023-01-15T09:49:33;4.30;99.90
52187;DHT22;38161;53.020;6.598;2023-01-15T09:52:37;4.40;99.90
52187;DHT22;38161;53.020;6.598;2023-01-15T09:55:16;4.50;99.90
52187;DHT22;38161;53.020;6.598;2023-01-15T09:57:43;4.60;99.90
52187;DHT22;38161;53.020;6.598;2023-01-15T10:00:19;4.70;99.90
52187;DHT22;38161;53.020;6.598;2023-01-15T10:02:46;4.80;99.90
52187;DHT22;38161;53.020;6.598;2023-01-15T10:05:20;4.90;99.90
52187;DHT22;38161;53.020;6.598;2023-01-15T10:07:54;5.00;99.90
52187;DHT22;38161;53.020;6.598;2023-01-15T10:10:25;4.90;99.90
52187;DHT22;38161;53.020;6.598;2023-01-15T10:13:01;4.90;99.90
52187;DHT22;38161;53.020;6.598;2023-01-15T10:15:46;4.90;99.90
52187;DHT22;38161;53.020;6.598;2023-01-15T10:18:18;4.80;99.90
52187;DHT22;38161;53.020;6.598;2023-01-15T10:20:50;4.80;99.90
52187;DHT22;38161;53.020;6.598;2023-01-15T10:26:47;5.20;99.90
52187;DHT22;38161;53.020;6.598;2023-01-15T10:31:51;5.70;99.90
52187;DHT22;38161;53.020;6.598;2023-01-15T10:38:08;6.10;99.90
52187;DHT22;38161;53.020;6.598;2023-01-15T10:43:42;6.00;99.90
52187;DHT22;38161;53.020;6.598;2023-01-15T10:46:20;5.90;99.90
52187;DHT22;38161;53.020;6.598;2023-01-15T10:48:54;5.70;99.90
52187;DHT22;38161;53.020;6.598;2023-01-15T10:51:39;5.60;99.90
52187;DHT22;38161;53.020;6.598;2023-01-15T10:54:13;5.50;99.90
52187;DHT22;38161;53.020;6.598;2023-01-15T10:56:47;5.30;99.90
52187;DHT22;38161;53.020;6.598;2023-01-15T10:59:24;5.10;99.90
52187;DHT22;38161;53.020;6.598;2023-01-15T11:01:58;5.00;99.90
52187;DHT22;38161;53.020;6.598;2023-01-15T11:04:30;4.90;99.90
52187;DHT22;38161;53.020;6.598;2023-01-15T11:06:56;4.80;99.90
52187;DHT22;38161;53.020;6.598;2023-01-15T11:09:24;4.80;99.90
52187;DHT22;38161;53.020;6.598;2023-01-15T11:14:44;4.70;99.90
52187;DHT22;38161;53.020;6.598;2023-01-15T11:20:32;5.00;99.90
52187;DHT22;38161;53.020;6.598;2023-01-15T11:23:19;5.40;99.90
52187;DHT22;38161;53.020;6.598;2023-01-15T11:25:50;5.50;99.90
52187;DHT22;38161;53.020;6.598;2023-01-15T11:28:17;5.60;99.90
52187;DHT22;38161;53.020;6.598;2023-01-15T11:30:52;5.70;99.90
52187;DHT22;38161;53.020;6.598;2023-01-15T11:33:22;5.70;99.90
52187;DHT22;38161;53.020;6.598;2023-01-15T11:35:50;5.80;99.90
52187;DHT22;38161;53.020;6.598;2023-01-15T11:38:16;5.70;99.90
52187;DHT22;38161;53.020;6.598;2023-01-15T11:40:57;5.70;99.90
52187;DHT22;38161;53.020;6.598;2023-01-15T11:43:25;5.70;99.90
52187;DHT22;38161;53.020;6.598;2023-01-15T11:49:15;5.80;99.90
52187;DHT22;38161;53.020;6.598;2023-01-15T11:52:02;5.80;99.90
52187;DHT22;38161;53.020;6.598;2023-01-15T11:54:29;5.90;99.90
52187;DHT22;38161;53.020;6.598;2023-01-15T11:56:57;6.00;99.90
52187;DHT22;38161;53.020;6.598;2023-01-15T11:59:24;6.00;99.90
52187;DHT22;38161;53.020;6.598;2023-01-15T12:02:03;6.10;99.90
52187;DHT22;38161;53.020;6.598;2023-01-15T12:04:45;6.20;99.90
52187;DHT22;38161;53.020;6.598;2023-01-15T12:07:14;6.40;99.90
52187;DHT22;38161;53.020;6.598;2023-01-15T12:15:46;6.50;99.90
52187;DHT22;38161;53.020;6.598;2023-01-15T12:18:55;6.60;99.90
52187;DHT22;38161;53.020;6.598;2023-01-15T12:29:21;6.80;99.90
52187;DHT22;38161;53.020;6.598;2023-01-15T12:31:59;6.80;99.90
52187;DHT22;38161;53.020;6.598;2023-01-15T12:35:04;6.80;99.90
52187;DHT22;38161;53.020;6.598;2023-01-15T12:37:40;6.90;99.90
52187;DHT22;38161;53.020;6.598;2023-01-15T12:40:21;6.90;99.90
52187;DHT22;38161;53.020;6.598;2023-01-15T12:42:51;6.80;99.90
52187;DHT22;38161;53.020;6.598;2023-01-15T12:45:48;6.80;99.90
52187;DHT22;38161;53.020;6.598;2023-01-15T12:48:30;6.60;99.90
52187;DHT22;38161;53.020;6.598;2023-01-15T12:51:00;6.50;99.90
52187;DHT22;38161;53.020;6.598;2023-01-15T12:56:17;6.50;99.90
52187;DHT22;38161;53.020;6.598;2023-01-15T12:59:18;6.60;99.90
52187;DHT22;38161;53.020;6.598;2023-01-15T13:02:35;6.60;99.90
52187;DHT22;38161;53.020;6.598;2023-01-15T13:04:58;6.70;99.90
52187;DHT22;38161;53.020;6.598;2023-01-15T13:07:34;6.80;99.90
52187;DHT22;38161;53.020;6.598;2023-01-15T13:10:19;6.80;99.90
52187;DHT22;38161;53.020;6.598;2023-01-15T13:12:45;6.80;99.90
52187;DHT22;38161;53.020;6.598;2023-01-15T13:15:13;6.90;99.90
52187;DHT22;38161;53.020;6.598;2023-01-15T13:34:36;5.70;99.90
52187;DHT22;38161;53.020;6.598;2023-01-15T13:37:24;5.50;99.90
52187;DHT22;38161;53.020;6.598;2023-01-15T13:39:52;5.40;99.90
52187;DHT22;38161;53.020;6.598;2023-01-15T13:42:22;5.30;99.90
52187;DHT22;38161;53.020;6.598;2023-01-15T13:47:44;5.10;99.90
52187;DHT22;38161;53.020;6.598;2023-01-15T13:50:17;5.00;99.90
52187;DHT22;38161;53.020;6.598;2023-01-15T13:52:44;5.00;99.90
52187;DHT22;38161;53.020;6.598;2023-01-15T13:55:20;5.00;99.90
52187;DHT22;38161;53.020;6.598;2023-01-15T13:57:47;4.90;99.90
52187;DHT22;38161;53.020;6.598;2023-01-15T14:02:56;4.90;99.90
52187;DHT22;38161;53.020;6.598;2023-01-15T14:07:54;4.90;99.90
52187;DHT22;38161;53.020;6.598;2023-01-15T14:18:42;4.90;99.90
52187;DHT22;38161;53.020;6.598;2023-01-15T14:27:04;5.00;99.90
52187;DHT22;38161;53.020;6.598;2023-01-15T14:30:06;5.00;99.90
52187;DHT22;38161;53.020;6.598;2023-01-15T14:32:59;5.10;99.90
52187;DHT22;38161;53.020;6.598;2023-01-15T14:35:35;5.10;99.90
52187;DHT22;38161;53.020;6.598;2023-01-15T14:38:12;5.10;99.90
52187;DHT22;38161;53.020;6.598;2023-01-15T14:40:52;5.10;99.90
52187;DHT22;38161;53.020;6.598;2023-01-15T14:43:19;5.20;99.90
52187;DHT22;38161;53.020;6.598;2023-01-15T14:45:46;5.20;99.90
52187;DHT22;38161;53.020;6.598;2023-01-15T14:48:36;5.20;99.90
52187;DHT22;38161;53.020;6.598;2023-01-15T14:54:10;5.30;99.90
52187;DHT22;38161;53.020;6.598;2023-01-15T14:56:43;5.20;99.90
52187;DHT22;38161;53.020;6.598;2023-01-15T14:59:38;5.30;99.90
52187;DHT22;38161;53.020;6.598;2023-01-15T15:02:14;5.30;99.90
52187;DHT22;38161;53.020;6.598;2023-01-15T15:04:48;5.30;99.90
52187;DHT22;38161;53.020;6.598;2023-01-15T15:07:24;5.30;99.90
52187;DHT22;38161;53.020;6.598;2023-01-15T15:17:32;5.30;99.90
52187;DHT22;38161;53.020;6.598;2023-01-15T15:22:45;5.30;99.90
52187;DHT22;38161;53.020;6.598;2023-01-15T15:25:18;5.30;99.90
52187;DHT22;38161;53.020;6.598;2023-01-15T15:27:45;5.30;99.90
52187;DHT22;38161;53.020;6.598;2023-01-15T15:30:11;5.30;99.90
52187;DHT22;38161;53.020;6.598;2023-01-15T15:32:40;5.30;99.90
52187;DHT22;38161;53.020;6.598;2023-01-15T15:35:29;5.30;99.90
52187;DHT22;38161;53.020;6.598;2023-01-15T15:38:02;5.30;99.90
52187;DHT22;38161;53.020;6.598;2023-01-15T15:40:33;5.30;99.90
52187;DHT22;38161;53.020;6.598;2023-01-15T15:43:27;5.30;99.90
52187;DHT22;38161;53.020;6.598;2023-01-15T15:46:28;5.30;99.90
52187;DHT22;38161;53.020;6.598;2023-01-15T15:49:13;5.30;99.90
52187;DHT22;38161;53.020;6.598;2023-01-15T15:51:48;5.30;99.90
52187;DHT22;38161;53.020;6.598;2023-01-15T15:54:28;5.30;99.90
52187;DHT22;38161;53.020;6.598;2023-01-15T15:57:11;5.30;99.90
52187;DHT22;38161;53.020;6.598;2023-01-15T15:59:46;5.30;99.90
52187;DHT22;38161;53.020;6.598;2023-01-15T16:02:24;5.30;99.90
52187;DHT22;38161;53.020;6.598;2023-01-15T16:04:52;5.30;99.90
52187;DHT22;38161;53.020;6.598;2023-01-15T16:07:27;5.30;99.90
52187;DHT22;38161;53.020;6.598;2023-01-15T16:10:15;5.30;99.90
52187;DHT22;38161;53.020;6.598;2023-01-15T16:12:52;5.30;99.90
52187;DHT22;38161;53.020;6.598;2023-01-15T16:15:27;5.40;99.90
52187;DHT22;38161;53.020;6.598;2023-01-15T16:17:56;5.30;99.90
52187;DHT22;38161;53.020;6.598;2023-01-15T16:20:23;5.30;99.90
52187;DHT22;38161;53.020;6.598;2023-01-15T16:22:59;5.30;99.90
52187;DHT22;38161;53.020;6.598;2023-01-15T16:25:28;5.30;99.90
52187;DHT22;38161;53.020;6.598;2023-01-15T16:27:56;5.30;99.90
52187;DHT22;38161;53.020;6.598;2023-01-15T16:30:23;5.30;99.90
52187;DHT22;38161;53.020;6.598;2023-01-15T16:32:49;5.30;99.90
52187;DHT22;38161;53.020;6.598;2023-01-15T16:35:19;5.30;99.90
52187;DHT22;38161;53.020;6.598;2023-01-15T16:37:55;5.30;99.90
52187;DHT22;38161;53.020;6.598;2023-01-15T16:40:31;5.30;99.90
52187;DHT22;38161;53.020;6.598;2023-01-15T16:45:29;5.30;99.90
52187;DHT22;38161;53.020;6.598;2023-01-15T16:48:09;5.30;99.90
52187;DHT22;38161;53.020;6.598;2023-01-15T16:50:37;5.30;99.90
52187;DHT22;38161;53.020;6.598;2023-01-15T16:53:05;5.30;99.90
52187;DHT22;38161;53.020;6.598;2023-01-15T16:55:40;5.30;99.90
52187;DHT22;38161;53.020;6.598;2023-01-15T17:00:46;5.30;99.90
52187;DHT22;38161;53.020;6.598;2023-01-15T17:05:44;5.30;99.90
52187;DHT22;38161;53.020;6.598;2023-01-15T17:08:18;5.30;99.90
52187;DHT22;38161;53.020;6.598;2023-01-15T17:10:53;5.30;99.90
52187;DHT22;38161;53.020;6.598;2023-01-15T17:13:20;5.30;99.90
52187;DHT22;38161;53.020;6.598;2023-01-15T17:15:47;5.20;99.90
52187;DHT22;38161;53.020;6.598;2023-01-15T17:18:25;5.20;99.90
52187;DHT22;38161;53.020;6.598;2023-01-15T17:20:51;5.30;99.90
52187;DHT22;38161;53.020;6.598;2023-01-15T17:23:21;5.20;99.90
52187;DHT22;38161;53.020;6.598;2023-01-15T17:25:48;5.30;99.90
52187;DHT22;38161;53.020;6.598;2023-01-15T17:28:14;5.20;99.90
52187;DHT22;38161;53.020;6.598;2023-01-15T17:30:40;5.20;99.90
52187;DHT22;38161;53.020;6.598;2023-01-15T17:33:09;5.20;99.90
52187;DHT22;38161;53.020;6.598;2023-01-15T17:35:38;5.20;99.90
52187;DHT22;38161;53.020;6.598;2023-01-15T17:38:05;5.20;99.90
52187;DHT22;38161;53.020;6.598;2023-01-15T17:40:33;5.20;99.90
52187;DHT22;38161;53.020;6.598;2023-01-15T17:42:59;5.20;99.90
52187;DHT22;38161;53.020;6.598;2023-01-15T17:45:27;5.20;99.90
52187;DHT22;38161;53.020;6.598;2023-01-15T17:47:53;5.20;99.90
52187;DHT22;38161;53.020;6.598;2023-01-15T17:50:20;5.20;99.90
52187;DHT22;38161;53.020;6.598;2023-01-15T17:52:45;5.20;99.90
52187;DHT22;38161;53.020;6.598;2023-01-15T17:55:17;5.10;99.90
52187;DHT22;38161;53.020;6.598;2023-01-15T17:58:01;5.10;99.90
52187;DHT22;38161;53.020;6.598;2023-01-15T18:00:46;5.10;99.90
52187;DHT22;38161;53.020;6.598;2023-01-15T18:03:31;5.10;99.90
52187;DHT22;38161;53.020;6.598;2023-01-15T18:06:16;5.10;99.90
52187;DHT22;38161;53.020;6.598;2023-01-15T18:08:46;5.00;99.90
52187;DHT22;38161;53.020;6.598;2023-01-15T18:11:13;5.00;99.90
52187;DHT22;38161;53.020;6.598;2023-01-15T18:13:39;5.00;99.90
52187;DHT22;38161;53.020;6.598;2023-01-15T18:16:08;5.00;99.90